Time;durP1;ratioP1;P1;durP2;ratioP2;P2;SDS_P1;SDS_P2;PMS_P1;PMS_P2;Temp;Humidity;BMP_temperature;BMP_pressure;BME280_temperature;BME280_humidity;BME280_pressure;Samples;Min_cycle;Max_cycle;Signal;HPM_P1;HPM_P2
2022/05/18 00:01:32;;;;;;;9.55;8.13;;;16.10;99.90;;;;;;5068093;28;20036;-79
2022/05/18 00:03:57;;;;;;;9.30;7.70;;;16.10;99.90;;;;;;5067585;28;20379;-79
2022/05/18 00:06:23;;;;;;;9.60;7.75;;;16.00;99.90;;;;;;5068384;28;20029;-80
2022/05/18 00:08:48;;;;;;;9.32;7.32;;;16.00;99.90;;;;;;5067600;28;20063;-79
2022/05/18 00:11:17;;;;;;;9.88;7.78;;;16.00;99.90;;;;;;5071292;28;20182;-79
2022/05/18 00:13:45;;;;;;;17.90;7.88;;;16.00;99.90;;;;;;5068182;28;20390;-81
2022/05/18 00:16:11;;;;;;;9.05;7.72;;;16.00;99.90;;;;;;5066679;28;20490;-80
2022/05/18 00:18:37;;;;;;;11.40;8.80;;;15.90;99.90;;;;;;5068117;28;20490;-80
2022/05/18 00:21:04;;;;;;;9.77;8.15;;;15.90;99.90;;;;;;5067644;28;20040;-80
2022/05/18 00:23:30;;;;;;;10.18;7.90;;;15.90;99.90;;;;;;5069414;28;20036;-81
2022/05/18 00:25:56;;;;;;;9.55;7.75;;;15.90;99.90;;;;;;5068279;28;20036;-81
2022/05/18 00:28:21;;;;;;;9.73;8.40;;;15.80;99.90;;;;;;5068372;28;20045;-78
2022/05/18 00:30:47;;;;;;;8.55;7.65;;;15.80;99.90;;;;;;5068485;28;20125;-78
2022/05/18 00:33:13;;;;;;;10.73;8.25;;;15.80;99.90;;;;;;5069449;28;20025;-78
2022/05/18 00:35:40;;;;;;;9.35;8.07;;;15.70;99.90;;;;;;5066799;28;20048;-78
2022/05/18 00:38:07;;;;;;;9.75;8.73;;;15.70;99.90;;;;;;5067625;28;20462;-78
2022/05/18 00:40:34;;;;;;;11.80;8.45;;;15.70;99.90;;;;;;5069063;28;20020;-78
2022/05/18 00:43:00;;;;;;;10.55;8.35;;;15.70;99.90;;;;;;5067626;28;20645;-79
2022/05/18 00:45:25;;;;;;;10.80;8.48;;;15.70;99.90;;;;;;5067014;28;20036;-78
2022/05/18 00:47:51;;;;;;;12.27;7.93;;;15.70;99.90;;;;;;5068889;28;20098;-78
2022/05/18 00:50:24;;;;;;;12.27;8.35;;;15.60;99.90;;;;;;5068008;28;20029;-77
2022/05/18 00:52:55;;;;;;;11.85;8.52;;;15.60;99.90;;;;;;5068374;28;20032;-77
2022/05/18 00:55:24;;;;;;;9.02;8.05;;;15.60;99.90;;;;;;5068568;28;20111;-80
2022/05/18 00:57:56;;;;;;;8.50;7.60;;;15.60;99.90;;;;;;5068570;28;20560;-78
2022/05/18 01:00:22;;;;;;;11.50;9.15;;;15.50;99.90;;;;;;5067181;28;20032;-80
2022/05/18 01:02:54;;;;;;;12.70;8.93;;;15.50;99.90;;;;;;5067156;28;20108;-78
2022/05/18 01:05:26;;;;;;;9.30;7.82;;;15.50;99.90;;;;;;5066752;28;20032;-79
2022/05/18 01:07:55;;;;;;;10.93;9.10;;;15.50;99.90;;;;;;5068522;28;20043;-78
2022/05/18 01:10:20;;;;;;;13.18;9.38;;;15.50;99.90;;;;;;5067447;28;20035;-78
2022/05/18 01:12:47;;;;;;;10.57;8.43;;;15.40;99.90;;;;;;5067050;28;20422;-78
2022/05/18 01:15:16;;;;;;;9.88;8.88;;;15.40;99.90;;;;;;5067219;28;20115;-78
2022/05/18 01:17:45;;;;;;;9.68;8.23;;;15.40;99.90;;;;;;5066262;28;20055;-79
2022/05/18 01:20:13;;;;;;;10.88;8.57;;;15.40;99.90;;;;;;5068225;28;20024;-78
2022/05/18 01:22:49;;;;;;;9.52;8.32;;;15.40;99.90;;;;;;5068093;28;20064;-79
2022/05/18 01:25:29;;;;;;;11.27;8.40;;;15.40;99.90;;;;;;5067123;28;20033;-80
2022/05/18 01:27:57;;;;;;;9.55;8.13;;;15.40;99.90;;;;;;5068345;28;20548;-79
2022/05/18 01:30:23;;;;;;;9.52;8.07;;;15.40;99.90;;;;;;5068834;28;20040;-79
2022/05/18 01:32:52;;;;;;;11.02;8.70;;;15.30;99.90;;;;;;5065895;28;20032;-79
2022/05/18 01:35:21;;;;;;;8.77;7.93;;;15.40;99.90;;;;;;5066052;28;20029;-79
2022/05/18 01:37:47;;;;;;;12.00;8.35;;;15.30;99.90;;;;;;5070983;28;20032;-79
2022/05/18 01:40:40;;;;;;;9.27;7.93;;;15.30;99.90;;;;;;5070334;28;20032;-78
2022/05/18 01:43:15;;;;;;;15.63;8.65;;;15.30;99.90;;;;;;5070159;28;20070;-79
2022/05/18 01:45:40;;;;;;;9.80;8.80;;;15.30;99.90;;;;;;5069350;28;20028;-78
2022/05/18 01:48:12;;;;;;;10.68;8.65;;;15.20;99.90;;;;;;5071549;28;20067;-79
2022/05/18 01:50:39;;;;;;;15.52;10.35;;;15.20;99.90;;;;;;5070921;28;20036;-79
2022/05/18 01:53:05;;;;;;;11.75;9.25;;;15.20;99.90;;;;;;5071789;28;20111;-79
2022/05/18 01:55:31;;;;;;;11.65;9.05;;;15.20;99.90;;;;;;5070518;28;20470;-79
2022/05/18 01:57:56;;;;;;;10.07;9.07;;;15.20;99.90;;;;;;5072024;28;20825;-79
2022/05/18 02:00:22;;;;;;;11.40;10.20;;;15.20;99.90;;;;;;5071530;28;20029;-79
2022/05/18 02:02:47;;;;;;;11.32;10.13;;;15.20;99.90;;;;;;5062999;28;20099;-78
2022/05/18 02:05:12;;;;;;;12.73;10.93;;;15.20;99.90;;;;;;5071414;28;20115;-80
2022/05/18 02:07:38;;;;;;;12.23;9.88;;;15.20;99.90;;;;;;5071072;28;20028;-78
2022/05/18 02:10:04;;;;;;;12.07;9.73;;;15.20;99.90;;;;;;5074008;28;20136;-79
2022/05/18 02:12:30;;;;;;;12.77;10.38;;;15.20;99.90;;;;;;5071007;28;20486;-79
2022/05/18 02:14:55;;;;;;;14.15;10.20;;;15.20;99.90;;;;;;5069542;28;20047;-78
2022/05/18 02:17:22;;;;;;;11.73;10.48;;;15.10;99.90;;;;;;5071131;28;20037;-78
2022/05/18 02:19:48;;;;;;;14.30;10.40;;;15.10;99.90;;;;;;5069221;28;20035;-79
2022/05/18 02:22:13;;;;;;;11.93;10.65;;;15.10;99.90;;;;;;5070813;28;20036;-79
2022/05/18 02:24:38;;;;;;;12.05;10.52;;;15.00;99.90;;;;;;5069714;28;20067;-79
2022/05/18 02:27:04;;;;;;;12.18;10.75;;;15.00;99.90;;;;;;5070149;28;20058;-79
2022/05/18 02:29:30;;;;;;;12.85;9.77;;;15.00;99.90;;;;;;5070563;28;20024;-78
2022/05/18 02:31:55;;;;;;;11.23;10.02;;;15.00;99.90;;;;;;5068857;28;20025;-79
2022/05/18 02:34:21;;;;;;;11.18;10.02;;;15.00;99.90;;;;;;5070392;28;20032;-79
2022/05/18 02:36:46;;;;;;;11.70;9.65;;;15.00;99.90;;;;;;5069299;28;20043;-79
2022/05/18 02:39:12;;;;;;;11.90;9.13;;;15.00;99.90;;;;;;5070774;28;20070;-79
2022/05/18 02:41:37;;;;;;;14.55;9.70;;;15.00;99.90;;;;;;5069541;28;20028;-79
2022/05/18 02:44:03;;;;;;;11.95;10.68;;;15.00;99.90;;;;;;5069630;28;20489;-79
2022/05/18 02:46:28;;;;;;;11.48;9.90;;;15.00;99.90;;;;;;5069375;28;20054;-79
2022/05/18 02:48:54;;;;;;;10.93;9.20;;;15.00;99.90;;;;;;5069441;28;20028;-79
2022/05/18 02:51:21;;;;;;;12.13;9.88;;;15.00;99.90;;;;;;5069811;28;20040;-79
2022/05/18 02:53:47;;;;;;;12.20;10.70;;;15.00;99.90;;;;;;5069750;28;20040;-79
2022/05/18 02:56:23;;;;;;;11.13;9.20;;;15.00;99.90;;;;;;5068986;28;20025;-79
2022/05/18 02:58:50;;;;;;;13.38;11.43;;;15.00;99.90;;;;;;5070174;28;20089;-79
2022/05/18 03:01:27;;;;;;;12.50;11.10;;;15.10;99.90;;;;;;5069567;28;20036;-78
2022/05/18 03:03:53;;;;;;;13.55;10.65;;;15.10;99.90;;;;;;5069991;28;20188;-79
2022/05/18 03:06:22;;;;;;;13.05;10.63;;;15.10;99.90;;;;;;5069893;28;20032;-79
2022/05/18 03:08:47;;;;;;;15.93;11.52;;;15.10;99.90;;;;;;5069571;28;20500;-79
2022/05/18 03:11:14;;;;;;;11.98;10.30;;;15.10;99.90;;;;;;5069368;28;20052;-79
2022/05/18 03:13:39;;;;;;;15.13;11.40;;;15.10;99.90;;;;;;5070716;28;20162;-78
2022/05/18 03:16:06;;;;;;;13.88;11.88;;;15.10;99.90;;;;;;5069925;28;20108;-79
2022/05/18 03:18:32;;;;;;;14.45;11.40;;;15.10;99.90;;;;;;5068603;28;20040;-78
2022/05/18 03:23:42;;;;;;;16.98;11.30;;;15.10;99.90;;;;;;5069234;28;20540;-79
2022/05/18 03:26:21;;;;;;;13.80;11.82;;;15.10;99.90;;;;;;5068166;28;20028;-78
2022/05/18 03:28:50;;;;;;;13.50;11.80;;;15.10;99.90;;;;;;5069240;28;20028;-79
2022/05/18 03:31:17;;;;;;;16.13;12.55;;;15.10;99.90;;;;;;5068821;28;20020;-78
2022/05/18 03:33:43;;;;;;;12.98;11.15;;;15.10;99.90;;;;;;5069491;28;20402;-79
2022/05/18 03:36:10;;;;;;;18.05;13.10;;;15.10;99.90;;;;;;5068739;28;20043;-78
2022/05/18 03:38:36;;;;;;;16.50;13.25;;;15.10;99.90;;;;;;5065055;28;20068;-79
2022/05/18 03:41:02;;;;;;;18.30;13.65;;;15.10;99.90;;;;;;5067354;28;20106;-78
2022/05/18 03:43:29;;;;;;;18.02;13.15;;;15.10;99.90;;;;;;5069250;28;20036;-78
2022/05/18 03:45:54;;;;;;;16.58;14.07;;;15.20;99.90;;;;;;5067810;28;20025;-79
2022/05/18 03:48:20;;;;;;;16.25;12.90;;;15.20;99.90;;;;;;5069708;28;20040;-79
2022/05/18 03:50:48;;;;;;;14.93;13.35;;;15.20;99.90;;;;;;5063639;28;20087;-79
2022/05/18 03:53:15;;;;;;;17.35;14.27;;;15.30;99.90;;;;;;5070005;28;20029;-79
2022/05/18 03:55:42;;;;;;;21.40;15.20;;;15.30;99.90;;;;;;5065987;28;20119;-78
2022/05/18 03:58:09;;;;;;;18.77;14.65;;;15.40;99.90;;;;;;5066610;28;20119;-78
2022/05/18 04:00:35;;;;;;;16.27;13.48;;;15.40;99.90;;;;;;5070153;28;20052;-79
2022/05/18 04:03:01;;;;;;;17.45;14.00;;;15.40;99.90;;;;;;5063043;28;20031;-79
2022/05/18 04:05:27;;;;;;;18.20;14.52;;;15.50;99.90;;;;;;5063360;28;20048;-79
2022/05/18 04:07:52;;;;;;;16.65;12.90;;;15.50;99.90;;;;;;5068018;28;20036;-79
2022/05/18 04:10:19;;;;;;;19.50;14.40;;;15.60;99.90;;;;;;5068136;28;20032;-79
2022/05/18 04:12:45;;;;;;;15.70;13.45;;;15.70;99.90;;;;;;5058505;28;20139;-78
2022/05/18 04:15:16;;;;;;;14.02;12.63;;;15.70;99.90;;;;;;5069721;28;20518;-79
2022/05/18 04:17:43;;;;;;;15.40;12.90;;;15.80;99.90;;;;;;5061136;28;20028;-79
2022/05/18 04:20:09;;;;;;;14.65;12.68;;;15.80;99.90;;;;;;5071076;28;20534;-79
2022/05/18 04:22:36;;;;;;;12.30;11.00;;;15.90;99.90;;;;;;5067395;28;20028;-79
2022/05/18 04:25:04;;;;;;;13.93;12.43;;;15.90;99.90;;;;;;5067235;28;20028;-79
2022/05/18 04:27:29;;;;;;;14.45;12.55;;;16.00;99.90;;;;;;5066229;28;20077;-79
2022/05/18 04:29:55;;;;;;;16.55;11.82;;;16.00;99.90;;;;;;5068893;28;20032;-79
2022/05/18 04:32:21;;;;;;;12.43;11.13;;;16.00;99.90;;;;;;5068477;28;20064;-79
2022/05/18 04:34:48;;;;;;;14.60;11.68;;;16.10;99.90;;;;;;5067794;28;20044;-78
2022/05/18 04:37:14;;;;;;;16.10;12.10;;;16.10;99.90;;;;;;5066657;28;20029;-79
2022/05/18 04:39:40;;;;;;;13.10;11.77;;;16.20;99.90;;;;;;5065993;28;20535;-80
2022/05/18 04:42:05;;;;;;;14.48;11.88;;;16.20;99.90;;;;;;5064755;28;20032;-79
2022/05/18 04:44:31;;;;;;;13.52;11.98;;;16.30;99.90;;;;;;5062455;28;20104;-80
2022/05/18 04:46:58;;;;;;;13.23;11.13;;;16.30;99.90;;;;;;5060989;28;20081;-79
2022/05/18 04:49:24;;;;;;;14.50;12.13;;;16.30;99.90;;;;;;5059635;28;20039;-79
2022/05/18 04:51:50;;;;;;;13.45;11.48;;;16.40;99.90;;;;;;5061349;28;21477;-80
2022/05/18 04:54:15;;;;;;;12.68;11.32;;;16.50;99.90;;;;;;5057681;28;20115;-81
2022/05/18 04:56:41;;;;;;;12.07;10.88;;;16.60;99.90;;;;;;5054186;28;20033;-81
2022/05/18 04:59:06;;;;;;;16.40;11.90;;;16.60;99.90;;;;;;5066157;28;20051;-82
2022/05/18 05:01:34;;;;;;;13.30;10.52;;;16.70;99.90;;;;;;5069051;28;20063;-82
2022/05/18 05:04:00;;;;;;;15.07;11.32;;;16.70;99.90;;;;;;5067757;28;20025;-82
2022/05/18 05:06:25;;;;;;;19.02;10.90;;;16.80;99.90;;;;;;5067256;28;20031;-83
2022/05/18 05:08:52;;;;;;;12.60;11.00;;;16.80;99.90;;;;;;5070595;28;20037;-82
2022/05/18 05:11:18;;;;;;;12.48;10.63;;;16.90;99.90;;;;;;5071973;28;20049;-82
2022/05/18 05:13:44;;;;;;;12.70;10.20;;;16.90;99.90;;;;;;5071172;28;20500;-83
2022/05/18 05:16:10;;;;;;;11.90;10.70;;;17.10;99.90;;;;;;5068333;28;20532;-82
2022/05/18 05:18:37;;;;;;;13.07;10.25;;;17.10;99.90;;;;;;5070285;28;20089;-81
2022/05/18 05:21:03;;;;;;;13.38;10.65;;;17.10;99.90;;;;;;5069728;28;20025;-81
2022/05/18 05:23:29;;;;;;;13.32;9.68;;;17.20;99.90;;;;;;5068689;28;20042;-82
2022/05/18 05:25:55;;;;;;;13.35;10.88;;;17.30;99.90;;;;;;5068030;28;20032;-81
2022/05/18 05:28:21;;;;;;;16.73;10.23;;;17.30;99.90;;;;;;5070147;28;20448;-81
2022/05/18 05:30:48;;;;;;;11.27;10.05;;;17.40;99.90;;;;;;5068211;28;20726;-82
2022/05/18 05:33:14;;;;;;;12.77;11.30;;;17.40;99.90;;;;;;5070740;28;20099;-82
2022/05/18 05:35:41;;;;;;;14.95;9.88;;;17.40;99.90;;;;;;5072178;28;20029;-82
2022/05/18 05:38:07;;;;;;;11.02;9.75;;;17.40;99.90;;;;;;5071738;28;20052;-82
2022/05/18 05:40:32;;;;;;;10.93;9.82;;;17.50;99.90;;;;;;5072655;28;20420;-82
2022/05/18 05:42:58;;;;;;;14.38;10.32;;;17.60;99.90;;;;;;5070813;28;20035;-83
2022/05/18 05:45:23;;;;;;;10.07;9.07;;;17.60;99.90;;;;;;5070025;28;20464;-81
2022/05/18 05:47:49;;;;;;;13.40;10.38;;;17.60;99.60;;;;;;5060452;28;20465;-81
2022/05/18 05:50:15;;;;;;;9.80;8.82;;;17.70;99.70;;;;;;5067817;28;20055;-82
2022/05/18 05:52:41;;;;;;;10.82;9.27;;;17.70;99.70;;;;;;5069571;28;20486;-82
2022/05/18 05:55:07;;;;;;;12.02;9.40;;;17.80;99.70;;;;;;5070642;28;20048;-80
2022/05/18 05:57:33;;;;;;;15.43;9.35;;;17.90;99.70;;;;;;5070625;28;20033;-80
2022/05/18 06:00:00;;;;;;;15.10;10.02;;;17.90;99.50;;;;;;5069893;28;20024;-82
2022/05/18 06:02:26;;;;;;;10.80;9.77;;;17.80;99.60;;;;;;5070244;28;20027;-81
2022/05/18 06:04:52;;;;;;;13.88;9.48;;;17.80;99.50;;;;;;5068008;28;20028;-82
2022/05/18 06:07:17;;;;;;;11.40;9.80;;;17.80;99.50;;;;;;5069159;28;20024;-82
2022/05/18 06:09:43;;;;;;;11.77;9.57;;;17.80;99.50;;;;;;5068168;28;20024;-82
2022/05/18 06:12:09;;;;;;;12.55;9.27;;;17.80;99.40;;;;;;5049622;28;20029;-80
2022/05/18 06:14:34;;;;;;;10.88;9.20;;;17.70;99.30;;;;;;5068674;28;20062;-81
2022/05/18 06:17:00;;;;;;;11.35;8.82;;;17.70;99.40;;;;;;5072718;28;20052;-80
2022/05/18 06:19:25;;;;;;;11.57;9.65;;;17.80;99.50;;;;;;5069647;28;20439;-80
2022/05/18 06:21:51;;;;;;;11.93;9.98;;;17.80;99.50;;;;;;5068590;28;20390;-80
2022/05/18 06:24:18;;;;;;;12.43;9.75;;;17.90;99.50;;;;;;5068615;28;20028;-81
2022/05/18 06:26:44;;;;;;;10.10;8.88;;;17.90;99.30;;;;;;5067570;28;20020;-80
2022/05/18 06:29:10;;;;;;;11.10;9.38;;;18.00;99.40;;;;;;5064619;28;20556;-80
2022/05/18 06:31:35;;;;;;;10.15;8.25;;;18.00;99.20;;;;;;5048346;28;20029;-80
2022/05/18 06:34:00;;;;;;;12.88;9.70;;;18.00;99.30;;;;;;5049910;28;20029;-82
2022/05/18 06:36:26;;;;;;;10.88;8.93;;;18.10;99.10;;;;;;5068156;28;20041;-80
2022/05/18 06:38:52;;;;;;;11.50;9.35;;;18.20;98.90;;;;;;5068450;28;20474;-80
2022/05/18 06:41:23;;;;;;;10.68;8.23;;;18.30;99.00;;;;;;5069062;28;20024;-81
2022/05/18 06:43:53;;;;;;;10.93;8.60;;;18.40;99.10;;;;;;5063640;28;20024;-79
2022/05/18 06:46:19;;;;;;;10.82;8.30;;;18.40;98.70;;;;;;5068379;28;20039;-82
2022/05/18 06:48:45;;;;;;;10.07;8.23;;;18.50;98.50;;;;;;5068283;28;20509;-83
2022/05/18 06:51:12;;;;;;;10.25;8.18;;;18.60;98.30;;;;;;5067306;28;20028;-83
2022/05/18 06:53:38;;;;;;;8.60;7.80;;;18.70;98.30;;;;;;5052940;28;20025;-82
2022/05/18 06:56:04;;;;;;;8.23;7.25;;;18.70;98.10;;;;;;5068168;28;20602;-83
2022/05/18 06:58:31;;;;;;;9.43;8.02;;;18.80;97.70;;;;;;5069500;28;20037;-82
2022/05/18 07:00:56;;;;;;;11.30;7.93;;;18.90;98.00;;;;;;5064816;28;20035;-82
2022/05/18 07:03:22;;;;;;;11.18;7.57;;;19.00;97.60;;;;;;5055179;28;20040;-83
2022/05/18 07:05:47;;;;;;;14.32;8.15;;;19.10;97.50;;;;;;5051909;28;20475;-82
2022/05/18 07:08:13;;;;;;;9.60;8.13;;;19.30;96.90;;;;;;5067929;28;20032;-83
2022/05/18 07:10:39;;;;;;;9.15;7.05;;;19.40;96.80;;;;;;5067312;28;20363;-82
2022/05/18 07:13:05;;;;;;;7.28;6.35;;;19.60;96.70;;;;;;5068815;28;20035;-81
2022/05/18 07:15:31;;;;;;;10.40;7.68;;;19.70;96.30;;;;;;5067821;28;20032;-81
2022/05/18 07:17:56;;;;;;;7.95;6.80;;;19.80;95.80;;;;;;5068772;28;20036;-82
2022/05/18 07:20:22;;;;;;;7.53;6.82;;;20.00;96.40;;;;;;5068590;28;20116;-82
2022/05/18 07:22:47;;;;;;;7.75;6.85;;;20.10;96.40;;;;;;5067031;28;20482;-80
2022/05/18 07:25:13;;;;;;;11.43;7.13;;;20.20;96.40;;;;;;5068146;28;20032;-79
2022/05/18 07:27:39;;;;;;;8.40;5.90;;;20.30;95.60;;;;;;5066708;28;20050;-82
2022/05/18 07:30:06;;;;;;;8.95;6.53;;;20.40;95.40;;;;;;5067048;28;20041;-81
2022/05/18 07:32:32;;;;;;;8.15;5.95;;;20.50;95.30;;;;;;5065676;28;20028;-82
2022/05/18 07:34:57;;;;;;;7.03;6.18;;;20.70;95.10;;;;;;5067908;28;20470;-80
2022/05/18 07:37:23;;;;;;;6.18;5.22;;;20.80;94.80;;;;;;5065837;28;20123;-82
2022/05/18 07:39:49;;;;;;;10.02;5.90;;;20.90;93.80;;;;;;5067817;28;20036;-79
2022/05/18 07:42:15;;;;;;;8.25;5.70;;;21.00;93.80;;;;;;5066838;28;20039;-84
2022/05/18 07:44:40;;;;;;;6.47;5.75;;;21.10;93.90;;;;;;5067943;28;20111;-83
2022/05/18 07:47:07;;;;;;;7.32;5.72;;;21.20;94.00;;;;;;5066857;28;20028;-78
2022/05/18 07:49:38;;;;;;;6.78;6.05;;;21.40;93.40;;;;;;5067529;28;20081;-80
2022/05/18 07:52:04;;;;;;;13.77;6.85;;;21.50;93.50;;;;;;5065273;28;20418;-79
2022/05/18 07:54:29;;;;;;;9.48;6.53;;;21.60;93.90;;;;;;5067285;28;20253;-79
2022/05/18 07:56:54;;;;;;;7.88;5.93;;;21.70;92.90;;;;;;5067207;28;20393;-80
2022/05/18 07:59:20;;;;;;;6.95;5.95;;;21.80;93.00;;;;;;5067376;28;20039;-79
2022/05/18 08:01:45;;;;;;;10.45;6.53;;;21.90;93.00;;;;;;5067605;28;20631;-79
2022/05/18 08:04:11;;;;;;;8.07;6.65;;;22.00;92.80;;;;;;5067651;28;20043;-80
2022/05/18 08:06:37;;;;;;;11.52;7.15;;;22.10;92.90;;;;;;5067413;28;20111;-78
2022/05/18 08:09:03;;;;;;;7.10;5.90;;;22.20;93.10;;;;;;5070605;28;20390;-78
2022/05/18 08:16:56;;;;;;;9.30;6.05;;;22.50;92.70;;;;;;5067073;28;20402;-80
2022/05/18 08:19:22;;;;;;;8.65;6.40;;;22.70;92.30;;;;;;5066722;28;20032;-80
2022/05/18 08:21:48;;;;;;;8.15;6.40;;;22.80;92.20;;;;;;5067515;28;20035;-79
2022/05/18 08:24:14;;;;;;;6.28;5.40;;;22.90;91.20;;;;;;5056115;28;20025;-80
2022/05/18 08:26:41;;;;;;;7.10;5.95;;;23.00;92.10;;;;;;5047604;28;20033;-79
2022/05/18 08:29:08;;;;;;;6.03;5.40;;;23.20;91.20;;;;;;5062345;28;20062;-80
2022/05/18 08:31:33;;;;;;;8.90;6.20;;;23.30;91.00;;;;;;5067763;28;20039;-80
2022/05/18 08:33:59;;;;;;;5.97;5.38;;;23.50;91.60;;;;;;5068072;28;20021;-80
2022/05/18 08:36:26;;;;;;;8.50;5.75;;;23.60;91.30;;;;;;5065885;28;20063;-79
2022/05/18 08:38:53;;;;;;;6.53;5.72;;;23.60;91.00;;;;;;5060262;28;20032;-79
2022/05/18 08:41:26;;;;;;;6.38;5.07;;;23.70;88.50;;;;;;5067018;28;20021;-78
2022/05/18 08:43:53;;;;;;;;;;;23.80;90.00;;;;;;5069965;28;20029;-80
2022/05/18 08:46:30;;;;;;;5.03;4.53;;;23.90;89.00;;;;;;5071035;28;19913;-79
2022/05/18 08:49:09;;;;;;;5.53;4.97;;;24.00;88.90;;;;;;5071786;28;20032;-80
2022/05/18 08:52:03;;;;;;;5.25;4.68;;;23.90;88.00;;;;;;5050807;28;20033;-79
2022/05/18 08:54:44;;;;;;;6.25;4.85;;;23.90;89.60;;;;;;5051863;28;20037;-80
2022/05/18 08:57:25;;;;;;;5.80;4.63;;;24.10;88.70;;;;;;5058773;28;20422;-80
2022/05/18 08:59:56;;;;;;;5.80;4.60;;;24.10;88.30;;;;;;5071515;28;20029;-80
2022/05/18 09:02:26;;;;;;;5.15;4.60;;;24.30;90.00;;;;;;5069741;28;20036;-79
2022/05/18 09:04:58;;;;;;;5.57;4.20;;;24.50;89.50;;;;;;5069741;28;20036;-79
2022/05/18 09:07:32;;;;;;;6.30;3.88;;;24.70;88.70;;;;;;5070905;28;20107;-80
2022/05/18 09:10:13;;;;;;;5.68;4.00;;;24.90;86.50;;;;;;5066345;28;20425;-80
2022/05/18 09:12:44;;;;;;;5.80;4.75;;;25.00;86.90;;;;;;5050738;28;20470;-79
2022/05/18 09:15:13;;;;;;;4.45;4.05;;;25.00;83.80;;;;;;5051354;28;20029;-80
2022/05/18 09:17:51;;;;;;;8.93;4.70;;;25.00;86.90;;;;;;5051088;28;20036;-78
2022/05/18 09:20:45;;;;;;;4.20;3.70;;;25.10;85.60;;;;;;5058160;28;20502;-79
2022/05/18 09:23:44;;;;;;;5.22;3.38;;;25.30;86.80;;;;;;5067134;28;20088;-79
2022/05/18 09:26:09;;;;;;;4.32;3.92;;;25.40;83.40;;;;;;5050573;28;20120;-78
2022/05/18 09:29:04;;;;;;;6.28;4.18;;;25.50;84.40;;;;;;5064890;28;20454;-82
2022/05/18 09:32:05;;;;;;;4.95;4.18;;;25.60;85.20;;;;;;5045908;28;20052;-78
2022/05/18 09:34:51;;;;;;;6.28;3.95;;;25.60;85.00;;;;;;5073006;28;20048;-77
2022/05/18 09:37:40;;;;;;;9.40;2.65;;;25.70;84.70;;;;;;5068066;28;20040;-78
2022/05/18 09:40:14;;;;;;;3.58;2.33;;;25.90;82.50;;;;;;5069115;28;20589;-78
2022/05/18 09:42:45;;;;;;;4.75;2.30;;;26.00;82.30;;;;;;5069691;28;20024;-78
2022/05/18 09:45:13;;;;;;;3.38;1.98;;;26.10;78.80;;;;;;5064079;28;20021;-78
2022/05/18 09:47:45;;;;;;;2.70;2.10;;;26.20;78.80;;;;;;5065758;28;20029;-79
2022/05/18 09:50:12;;;;;;;3.92;1.90;;;26.30;79.10;;;;;;5055015;28;20059;-78
2022/05/18 09:52:39;;;;;;;4.25;2.20;;;26.50;74.70;;;;;;5069549;28;20055;-77
2022/05/18 09:55:08;;;;;;;3.90;2.15;;;26.50;76.00;;;;;;5068400;28;20087;-78
2022/05/18 09:57:51;;;;;;;4.93;2.42;;;26.50;76.30;;;;;;5070119;28;20031;-79
2022/05/18 10:00:20;;;;;;;3.47;2.00;;;26.60;77.60;;;;;;5070017;28;20033;-79
2022/05/18 10:08:42;;;;;;;6.32;2.00;;;26.70;76.70;;;;;;5068725;28;20040;-77
2022/05/18 10:11:13;;;;;;;3.17;2.20;;;26.70;75.40;;;;;;5070295;28;20513;-78
2022/05/18 10:13:54;;;;;;;5.05;2.67;;;26.70;74.80;;;;;;5070462;28;20052;-77
2022/05/18 10:16:28;;;;;;;6.00;2.47;;;26.70;76.70;;;;;;5068246;28;20024;-77
2022/05/18 10:18:57;;;;;;;3.58;2.40;;;26.70;74.30;;;;;;5069463;28;20573;-78
2022/05/18 10:21:38;;;;;;;2.67;1.60;;;26.70;78.50;;;;;;5069120;28;20028;-78
2022/05/18 10:24:22;;;;;;;1.77;1.38;;;26.80;77.40;;;;;;5067286;28;20039;-79
2022/05/18 10:27:12;;;;;;;4.53;1.90;;;27.00;70.80;;;;;;5068594;28;20032;-78
2022/05/18 10:29:38;;;;;;;4.60;2.22;;;27.20;73.50;;;;;;5069639;28;20024;-79
2022/05/18 10:32:10;;;;;;;4.13;1.77;;;27.20;73.90;;;;;;5069933;28;20084;-78
2022/05/18 10:34:48;;;;;;;2.33;1.70;;;27.40;71.50;;;;;;5067796;28;20023;-78
2022/05/18 10:37:34;;;;;;;3.25;1.83;;;27.50;70.90;;;;;;5069435;28;20057;-78
2022/05/18 10:40:13;;;;;;;3.40;1.40;;;27.60;75.00;;;;;;5069975;28;20039;-78
2022/05/18 10:42:49;;;;;;;2.08;1.42;;;27.70;73.00;;;;;;5050438;28;20479;-78
2022/05/18 10:45:26;;;;;;;4.32;1.50;;;27.90;72.00;;;;;;5060983;28;20036;-79
2022/05/18 10:47:56;;;;;;;2.65;1.05;;;28.10;73.20;;;;;;5068155;28;20039;-79
2022/05/18 10:50:24;;;;;;;1.98;1.02;;;28.20;66.70;;;;;;5069743;28;20481;-79
2022/05/18 10:52:52;;;;;;;5.03;1.77;;;28.30;68.80;;;;;;5068646;28;20112;-79
2022/05/18 10:55:20;;;;;;;4.70;1.98;;;28.40;69.20;;;;;;5068831;28;20023;-79
2022/05/18 10:58:00;;;;;;;4.40;1.65;;;28.60;71.00;;;;;;5067586;28;20663;-79
2022/05/18 11:00:47;;;;;;;3.72;1.98;;;28.60;67.80;;;;;;5067911;28;20029;-78
2022/05/18 11:03:36;;;;;;;1.65;1.27;;;28.60;66.50;;;;;;5068927;28;20095;-79
2022/05/18 11:06:14;;;;;;;2.20;1.48;;;28.60;67.50;;;;;;5064943;28;20040;-80
2022/05/18 11:08:40;;;;;;;2.47;1.48;;;28.70;67.30;;;;;;5047508;28;20492;-79
2022/05/18 11:11:27;;;;;;;3.38;1.40;;;28.70;67.30;;;;;;5048228;28;20028;-80
2022/05/18 11:14:03;;;;;;;3.33;1.45;;;28.70;66.60;;;;;;5048901;28;20100;-79
2022/05/18 11:16:39;;;;;;;3.63;1.48;;;28.80;67.30;;;;;;5056707;28;20028;-79
2022/05/18 11:19:41;;;;;;;3.40;1.13;;;28.80;68.50;;;;;;5067741;28;20040;-79
2022/05/18 11:22:24;;;;;;;2.55;1.52;;;28.90;68.10;;;;;;5053841;28;20044;-79
2022/05/18 11:25:07;;;;;;;2.25;1.80;;;28.90;72.20;;;;;;5048754;28;20064;-79
2022/05/18 11:27:42;;;;;;;2.47;1.70;;;29.00;72.10;;;;;;5064471;28;20121;-79
2022/05/18 11:30:19;;;;;;;3.03;1.70;;;29.00;69.30;;;;;;5068707;28;20036;-79
2022/05/18 11:33:08;;;;;;;4.70;1.55;;;29.20;66.10;;;;;;5068035;28;20037;-79
2022/05/18 11:36:16;;;;;;;3.28;1.70;;;29.30;68.50;;;;;;5067426;28;20024;-79
2022/05/18 11:39:21;;;;;;;2.20;1.67;;;29.30;70.30;;;;;;5067344;28;20398;-79
2022/05/18 11:42:02;;;;;;;2.67;1.33;;;29.30;66.30;;;;;;5067547;28;20448;-81
2022/05/18 11:44:53;;;;;;;2.50;1.60;;;29.30;63.90;;;;;;5067948;28;20044;-80
2022/05/18 11:47:39;;;;;;;2.78;1.33;;;29.30;66.30;;;;;;5066771;28;20095;-79
2022/05/18 11:50:34;;;;;;;1.70;1.30;;;29.30;63.30;;;;;;5067593;28;20036;-80
2022/05/18 11:53:37;;;;;;;4.50;1.35;;;29.10;67.40;;;;;;5064801;28;20032;-80
2022/05/18 11:56:31;;;;;;;3.00;1.25;;;29.20;65.00;;;;;;5061956;28;20024;-80
2022/05/18 11:59:29;;;;;;;3.28;1.38;;;29.00;63.90;;;;;;5061971;28;20028;-80
2022/05/18 12:02:14;;;;;;;1.80;1.10;;;28.70;65.00;;;;;;5064572;28;20023;-78
2022/05/18 12:04:58;;;;;;;3.85;1.65;;;28.40;62.70;;;;;;5058670;28;20122;-78
2022/05/18 12:08:25;;;;;;;2.53;1.40;;;28.20;64.20;;;;;;5055356;28;20056;-79
2022/05/18 12:11:11;;;;;;;3.10;1.45;;;28.10;64.50;;;;;;4980937;28;20070;-78
2022/05/18 12:14:08;;;;;;;3.80;1.33;;;28.10;67.00;;;;;;4979176;28;20069;-79
2022/05/18 12:17:03;;;;;;;5.28;1.35;;;28.20;65.40;;;;;;5062284;28;20044;-78
2022/05/18 12:19:43;;;;;;;2.92;1.58;;;28.40;62.00;;;;;;5060642;28;20515;-78
2022/05/18 12:22:13;;;;;;;2.55;1.38;;;28.60;61.10;;;;;;5051857;28;20021;-79
2022/05/18 12:24:41;;;;;;;3.15;1.02;;;28.60;61.70;;;;;;5062024;28;20187;-78
2022/05/18 12:27:09;;;;;;;2.72;1.27;;;28.70;64.00;;;;;;5050106;28;20608;-78
2022/05/18 12:29:37;;;;;;;2.83;1.15;;;28.70;60.40;;;;;;5058438;28;20032;-79
2022/05/18 12:32:04;;;;;;;2.85;1.10;;;28.90;61.00;;;;;;5058781;28;20040;-79
2022/05/18 12:34:35;;;;;;;3.90;0.98;;;29.00;60.40;;;;;;5064299;28;20788;-78
2022/05/18 12:37:35;;;;;;;3.03;1.52;;;29.20;59.00;;;;;;5060193;28;20127;-78
2022/05/18 12:40:25;;;;;;;2.78;0.90;;;29.30;58.60;;;;;;5060290;28;20059;-79
2022/05/18 12:42:57;;;;;;;4.43;1.05;;;29.60;61.10;;;;;;5058347;28;20025;-79
2022/05/18 12:45:26;;;;;;;1.20;0.82;;;29.70;57.30;;;;;;5062544;28;20386;-79
2022/05/18 12:48:09;;;;;;;1.17;0.85;;;29.80;60.00;;;;;;5063608;28;20094;-79
2022/05/18 12:50:40;;;;;;;1.50;0.88;;;29.80;60.10;;;;;;5066373;28;20052;-79
2022/05/18 12:53:17;;;;;;;1.67;0.90;;;29.90;56.90;;;;;;5051864;28;20026;-79
2022/05/18 12:55:54;;;;;;;1.95;0.90;;;30.00;58.30;;;;;;5048122;28;20033;-79
2022/05/18 12:58:30;;;;;;;1.40;0.90;;;30.00;56.70;;;;;;5060156;28;20037;-78
2022/05/18 13:01:14;;;;;;;3.30;1.52;;;30.00;58.90;;;;;;5064591;28;20024;-78
2022/05/18 13:03:42;;;;;;;1.67;0.80;;;30.10;59.30;;;;;;5052298;28;20033;-79
2022/05/18 13:06:29;;;;;;;7.25;1.25;;;30.20;58.50;;;;;;5060203;28;20494;-79
2022/05/18 13:09:04;;;;;;;1.77;0.90;;;30.30;60.20;;;;;;5062302;28;20040;-78
2022/05/18 13:11:54;;;;;;;3.10;0.80;;;30.30;57.20;;;;;;5064325;28;20067;-79
2022/05/18 13:14:56;;;;;;;1.67;0.85;;;30.40;54.60;;;;;;5021158;28;20090;-79